Hovedside
METAR-TAF:

METAR-TAF

Lufthavner :

Porto Alegre, Rio Grande do Sul, Brasil

breddegrad: 30-01S, lengdegrad: 051-13W, høyde over havet: 47 m

Gjeldene værobservasjon

Denne rapporten ble laget for 1 time og 54 minutter siden, klokken 03:00 UTC
Vind 4 kt fra Øst-sørøst
Temperatur 16°C
Luftfuktighet 94%
Trykk 1018 hPa
Sikt 10 km eller mer
ingen skyer under 1500 m og ingen bygeskyer

METAR: SBCO 200300Z 11004KT CAVOK 16/15 Q1018

Tid: 01:54 (04:54 UTC)

Varsel

Denne rapporten ble laget for 7 timer og 54 minutter siden, klokken 21:00 UTC
Varsel gyldig fra 20. klokken 00 UTC til 20. klokken 12 UTC
Vind 5 kt fra Øst
Sikt 10 km eller mer
ingen skyer under 1500 m og ingen bygeskyer
Sannsynlighet 30%
fra 20. klokken 07 UTC til 20. klokken 10 UTC
Sikt: 3000 m
Spredte skyer i en høyde av 800 ft
dis

TAF: SBCO 192100Z 2000/2012 09005KT CAVOK TX22/2000Z TN13/2008Z PROB30 2007/2010 3000 BR SCT008 RMK PFP

Værobservasjoner og værvarsel for over 4000 flyplasser (METAR- og TAF-rapporter).

Tilgjengelige stasjoner er representert av de røde og gule prikkene på kartet.

Hold musepekeren over prikken for å se navnet på stasjonen.

Klikk så for å se værobservasjoner og -varsler.

For å forandre kartet kan du klikke på den grønne knappen med svart kryss for å zoome inn, på den grønne knappen med strek for å zoome ut, eller på de grønne pilene for å se tilstøtende kart.


METAR-TAF: